createdAt,value
2019-02-18T00:01:21.520Z,-2.56
2019-02-18T00:06:41.396Z,-2.62
2019-02-18T00:12:00.551Z,-2.70
2019-02-18T00:17:20.020Z,-2.79
2019-02-18T00:22:39.440Z,-2.86
2019-02-18T00:27:59.383Z,-2.82
2019-02-18T00:33:18.528Z,-2.86
2019-02-18T00:38:37.799Z,-2.81
2019-02-18T00:43:57.761Z,-2.73
2019-02-18T00:49:17.320Z,-2.70
2019-02-18T00:54:36.909Z,-2.72
2019-02-18T00:59:56.368Z,-2.81
2019-02-18T01:05:15.610Z,-2.88
2019-02-18T01:10:35.469Z,-2.90
2019-02-18T01:15:55.381Z,-2.94
2019-02-18T01:21:14.770Z,-3.04
2019-02-18T01:26:34.141Z,-2.99
2019-02-18T01:31:55.157Z,-2.99
2019-02-18T01:37:15.076Z,-3.04
2019-02-18T01:42:34.808Z,-2.99
2019-02-18T01:47:55.054Z,-2.96
2019-02-18T01:53:14.160Z,-2.95
2019-02-18T01:58:33.208Z,-3.03
2019-02-18T02:03:52.427Z,-3.13
2019-02-18T02:09:12.779Z,-3.18
2019-02-18T02:14:33.332Z,-3.28
2019-02-18T02:19:52.887Z,-3.30
2019-02-18T02:25:12.344Z,-3.29
2019-02-18T02:30:32.709Z,-3.24
2019-02-18T02:35:52.800Z,-3.34
2019-02-18T02:41:12.407Z,-3.36
2019-02-18T02:46:33.075Z,-3.48
2019-02-18T02:51:52.160Z,-3.41
2019-02-18T02:57:11.448Z,-3.39
2019-02-18T03:02:30.561Z,-3.49
2019-02-18T03:07:49.795Z,-3.47
2019-02-18T03:13:09.666Z,-3.42
2019-02-18T03:18:30.579Z,-3.49
2019-02-18T03:23:50.228Z,-3.59
2019-02-18T03:29:59.852Z,-3.60
2019-02-18T03:35:20.068Z,-3.67
2019-02-18T03:40:39.355Z,-3.60
2019-02-18T03:45:58.952Z,-3.67
2019-02-18T03:51:18.225Z,-3.68
2019-02-18T03:56:38.528Z,-3.71
2019-02-18T04:01:57.584Z,-3.76
2019-02-18T04:07:17.296Z,-3.75
2019-02-18T04:12:37.447Z,-3.78
2019-02-18T04:17:56.808Z,-3.79
2019-02-18T04:23:17.125Z,-3.85
2019-02-18T04:28:36.285Z,-3.86
2019-02-18T04:33:55.434Z,-3.83
2019-02-18T04:39:14.906Z,-3.96
2019-02-18T04:44:34.209Z,-3.97
2019-02-18T04:49:53.389Z,-4.06
2019-02-18T04:55:13.092Z,-4.01
2019-02-18T05:00:32.388Z,-3.98
2019-02-18T05:05:52.362Z,-4.02
2019-02-18T05:11:12.443Z,-4.05
2019-02-18T05:16:31.979Z,-4.07
2019-02-18T05:21:51.478Z,-4.12
2019-02-18T05:27:11.397Z,-4.08
2019-02-18T05:32:30.949Z,-4.14
2019-02-18T05:37:50.079Z,-4.25
2019-02-18T05:43:09.306Z,-4.23
2019-02-18T05:48:29.398Z,-4.21
2019-02-18T05:53:48.710Z,-4.24
2019-02-18T05:59:08.409Z,-4.26
2019-02-18T06:04:28.099Z,-4.26
2019-02-18T06:09:48.709Z,-4.24
2019-02-18T06:15:08.651Z,-4.31
2019-02-18T06:20:28.268Z,-4.34
2019-02-18T06:25:47.609Z,-4.18
2019-02-18T06:31:07.191Z,-4.03
2019-02-18T06:36:26.224Z,-3.91
2019-02-18T06:41:46.041Z,-3.88
2019-02-18T06:47:12.862Z,-3.87
2019-02-18T06:52:32.722Z,-3.88
2019-02-18T06:58:16.891Z,-3.70
2019-02-18T07:03:49.171Z,-3.46
2019-02-18T07:09:29.125Z,-3.27
2019-02-18T07:14:48.271Z,-3.18
2019-02-18T07:20:09.197Z,-2.95
2019-02-18T07:25:29.034Z,-2.73
2019-02-18T07:30:48.901Z,-2.50
2019-02-18T07:36:08.401Z,-2.25
2019-02-18T07:41:27.457Z,-1.93
2019-02-18T07:46:47.692Z,-1.17
2019-02-18T07:52:06.925Z,-1.17
2019-02-18T07:57:26.208Z,-0.78
2019-02-18T08:02:45.451Z,-0.48
2019-02-18T08:08:04.678Z,-0.13
2019-02-18T08:13:26.718Z,0.19
2019-02-18T08:18:44.615Z,0.53
2019-02-18T08:24:03.620Z,0.84
2019-02-18T08:29:23.200Z,1.13
2019-02-18T08:34:43.124Z,1.47
2019-02-18T08:40:02.670Z,1.80
2019-02-18T08:45:22.041Z,2.13
2019-02-18T08:50:42.399Z,2.49
2019-02-18T08:56:02.561Z,2.90
2019-02-18T09:01:22.072Z,3.28
2019-02-18T09:06:42.543Z,3.73
2019-02-18T09:12:01.721Z,4.17
2019-02-18T09:17:21.240Z,4.53
2019-02-18T09:22:51.895Z,4.91
2019-02-18T09:28:10.984Z,5.32
2019-02-18T09:33:30.082Z,5.77
2019-02-18T09:38:49.460Z,6.20
2019-02-18T09:44:08.633Z,6.71
2019-02-18T09:49:27.993Z,7.16
2019-02-18T09:54:47.202Z,7.63
2019-02-18T10:00:06.448Z,8.15
2019-02-18T10:05:26.005Z,8.56
2019-02-18T10:10:55.341Z,8.93
2019-02-18T10:16:04.959Z,9.38
2019-02-18T10:21:24.463Z,9.75
2019-02-18T10:26:43.725Z,10.07
2019-02-18T10:32:03.617Z,10.41
2019-02-18T10:37:24.110Z,10.76
2019-02-18T10:42:43.524Z,11.20
2019-02-18T10:48:03.996Z,11.73
2019-02-18T10:53:23.710Z,12.15
2019-02-18T10:58:43.044Z,12.54
2019-02-18T11:04:02.853Z,12.83
2019-02-18T11:09:22.048Z,13.06
2019-02-18T11:14:42.304Z,13.65
2019-02-18T11:20:01.905Z,14.45
2019-02-18T11:25:22.019Z,16.67
2019-02-18T11:30:41.347Z,20.20
2019-02-18T11:36:00.777Z,19.93
2019-02-18T11:41:27.089Z,19.04
2019-02-18T11:46:40.675Z,18.22
2019-02-18T11:52:00.218Z,18.69
2019-02-18T11:57:20.767Z,19.32
2019-02-18T12:02:39.807Z,21.40
2019-02-18T12:07:59.240Z,24.45
2019-02-18T12:13:18.380Z,26.88
2019-02-18T12:18:38.947Z,27.60
2019-02-18T12:23:58.157Z,26.14
2019-02-18T12:29:26.262Z,26.94
2019-02-18T12:34:37.307Z,27.97
2019-02-18T12:39:56.714Z,24.97
2019-02-18T12:45:16.494Z,23.28
2019-02-18T12:50:36.170Z,21.93
2019-02-18T12:55:56.318Z,22.02
2019-02-18T13:01:15.363Z,21.84
2019-02-18T13:06:34.614Z,21.38
2019-02-18T13:11:59.099Z,23.12
2019-02-18T13:17:15.180Z,21.33
2019-02-18T13:22:34.604Z,20.59
2019-02-18T13:27:53.959Z,21.97
2019-02-18T13:33:13.234Z,22.38
2019-02-18T13:38:33.184Z,24.54
2019-02-18T13:43:52.640Z,23.94
2019-02-18T13:49:12.040Z,23.46
2019-02-18T13:54:31.669Z,23.38
2019-02-18T13:59:51.235Z,23.40
2019-02-18T14:05:10.567Z,22.42
2019-02-18T14:10:30.014Z,20.73
2019-02-18T14:15:50.340Z,20.78
2019-02-18T14:21:09.783Z,21.35
2019-02-18T14:26:28.948Z,20.75
2019-02-18T14:31:49.199Z,19.52
2019-02-18T14:37:08.991Z,21.27
2019-02-18T14:42:29.187Z,21.20
2019-02-18T14:47:49.364Z,21.01
2019-02-18T14:53:08.739Z,20.01
2019-02-18T14:58:28.400Z,19.70
2019-02-18T15:03:47.708Z,18.95
2019-02-18T15:09:07.285Z,18.12
2019-02-18T15:14:26.644Z,16.60
2019-02-18T15:19:46.007Z,15.35
2019-02-18T15:25:05.898Z,13.42
2019-02-18T15:30:26.184Z,12.74
2019-02-18T15:35:46.122Z,11.68
2019-02-18T15:41:05.647Z,10.78
2019-02-18T15:46:24.699Z,10.34
2019-02-18T15:51:44.229Z,9.74
2019-02-18T15:57:03.975Z,9.14
2019-02-18T16:02:24.397Z,8.99
2019-02-18T16:07:44.100Z,8.25
2019-02-18T16:13:04.417Z,7.70
2019-02-18T16:18:23.578Z,7.32
2019-02-18T16:23:43.342Z,7.02
2019-02-18T16:29:03.521Z,6.69
2019-02-18T16:34:25.230Z,6.05
2019-02-18T16:39:44.809Z,5.63
2019-02-18T16:45:05.623Z,5.17
2019-02-18T16:50:25.182Z,4.98
2019-02-18T16:55:45.137Z,4.65
2019-02-18T17:01:04.722Z,4.40
2019-02-18T17:06:24.061Z,4.30
2019-02-18T17:11:43.825Z,4.13
2019-02-18T17:17:03.058Z,3.99
2019-02-18T17:22:22.800Z,3.67
2019-02-18T17:27:42.524Z,3.38
2019-02-18T17:33:02.831Z,3.05
2019-02-18T17:38:23.882Z,2.88
2019-02-18T17:43:44.079Z,2.57
2019-02-18T17:49:04.716Z,2.42
2019-02-18T17:54:24.581Z,2.40
2019-02-18T17:59:43.977Z,2.27
2019-02-18T18:05:04.422Z,1.98
2019-02-18T18:10:24.593Z,1.91
2019-02-18T18:15:45.039Z,1.70
2019-02-18T18:21:05.342Z,1.31
2019-02-18T18:26:25.362Z,1.12
2019-02-18T18:31:46.062Z,0.86
2019-02-18T18:37:06.542Z,0.92
2019-02-18T18:42:26.311Z,0.68
2019-02-18T18:47:46.519Z,0.56
2019-02-18T18:53:06.276Z,0.48
2019-02-18T18:58:27.025Z,0.35
2019-02-18T19:03:47.161Z,0.20
2019-02-18T19:09:07.122Z,0.16
2019-02-18T19:14:26.819Z,0.06
2019-02-18T19:19:47.440Z,-0.02
2019-02-18T19:25:07.070Z,0.00
2019-02-18T19:30:28.606Z,-0.16
2019-02-18T19:35:48.144Z,-0.22
2019-02-18T19:41:08.488Z,-0.29
2019-02-18T19:46:28.728Z,-0.27
2019-02-18T19:51:49.184Z,-0.41
2019-02-18T19:57:09.835Z,-0.53
2019-02-18T20:02:31.144Z,-0.52
2019-02-18T20:07:50.779Z,-0.47
2019-02-18T20:13:11.293Z,-0.48
2019-02-18T20:18:30.702Z,-0.71
2019-02-18T20:23:51.036Z,-0.79
2019-02-18T20:29:11.331Z,-0.86
2019-02-18T20:34:31.192Z,-0.95
2019-02-18T20:39:51.512Z,-1.11
2019-02-18T20:45:11.295Z,-1.11
2019-02-18T20:50:31.814Z,-1.13
2019-02-18T20:55:51.533Z,-1.17
2019-02-18T21:01:13.556Z,-1.17
2019-02-18T21:06:33.517Z,-1.28
2019-02-18T21:11:54.892Z,-1.28
2019-02-18T21:17:15.543Z,-1.21
2019-02-18T21:22:35.259Z,-1.45
2019-02-18T21:27:55.391Z,-1.40
2019-02-18T21:33:17.953Z,-1.55
2019-02-18T21:38:36.917Z,-1.55
2019-02-18T21:43:56.189Z,-1.72
2019-02-18T21:49:17.279Z,-1.73
2019-02-18T21:54:36.682Z,-1.72
2019-02-18T21:59:56.951Z,-1.72
2019-02-18T22:05:16.654Z,-1.76
2019-02-18T22:10:38.609Z,-1.78
2019-02-18T22:15:58.210Z,-1.81
2019-02-18T22:21:18.732Z,-1.80
2019-02-18T22:26:38.629Z,-2.04
2019-02-18T22:31:58.646Z,-2.04
2019-02-18T22:37:19.468Z,-2.03
2019-02-18T22:42:39.723Z,-2.19
2019-02-18T22:48:00.325Z,-2.29
2019-02-18T22:53:20.317Z,-2.21
2019-02-18T22:58:39.667Z,-2.31
2019-02-18T23:03:59.099Z,-2.38
2019-02-18T23:09:18.208Z,-2.33
2019-02-18T23:14:37.593Z,-2.24
2019-02-18T23:19:56.853Z,-2.28
2019-02-18T23:25:15.994Z,-2.41
2019-02-18T23:30:35.894Z,-2.41
2019-02-18T23:35:56.382Z,-2.34
2019-02-18T23:41:15.975Z,-2.39
2019-02-18T23:46:35.759Z,-2.45
2019-02-18T23:51:55.224Z,-2.46
2019-02-18T23:57:15.062Z,-2.53
